Time;durP1;ratioP1;P1;durP2;ratioP2;P2;SDS_P1;SDS_P2;PMS_P1;PMS_P2;Temp;Humidity;BMP_temperature;BMP_pressure;BME280_temperature;BME280_humidity;BME280_pressure;Samples;Min_cycle;Max_cycle;Signal;HPM_P1;HPM_P2
2023/07/18 00:00:36;;;;;;;8.68;4.75;;;15.00;99.90;;;;;;5039366;28;20029;-53
2023/07/18 00:03:03;;;;;;;8.27;5.03;;;14.80;99.90;;;;;;5039296;28;20547;-53
2023/07/18 00:05:30;;;;;;;12.88;4.88;;;14.80;99.90;;;;;;5043791;28;20037;-56
2023/07/18 00:07:55;;;;;;;10.90;5.05;;;14.90;99.90;;;;;;5042769;28;20256;-55
2023/07/18 00:10:22;;;;;;;8.70;5.05;;;14.80;99.90;;;;;;5034823;28;22676;-55
2023/07/18 00:12:48;;;;;;;10.25;4.95;;;14.80;99.90;;;;;;5035044;28;20740;-54
2023/07/18 00:15:14;;;;;;;7.03;5.00;;;14.80;99.90;;;;;;5034646;28;20040;-52
2023/07/18 00:17:41;;;;;;;9.05;5.10;;;14.90;99.90;;;;;;5033395;28;20068;-54
2023/07/18 00:20:10;;;;;;;9.75;4.75;;;14.80;99.90;;;;;;5036983;28;20037;-55
2023/07/18 00:22:43;;;;;;;8.05;4.97;;;14.80;99.90;;;;;;5040112;28;20041;-54
2023/07/18 00:25:13;;;;;;;9.35;5.20;;;14.70;99.90;;;;;;5032387;28;20696;-54
2023/07/18 00:27:40;;;;;;;8.25;5.38;;;14.70;99.90;;;;;;5029645;28;20528;-54
2023/07/18 00:30:08;;;;;;;8.85;5.00;;;14.70;99.90;;;;;;5040761;28;20029;-53
2023/07/18 00:32:33;;;;;;;12.27;5.28;;;14.70;99.90;;;;;;5033694;28;20067;-53
2023/07/18 00:34:59;;;;;;;9.23;5.32;;;14.70;99.90;;;;;;5043327;28;20048;-52
2023/07/18 00:37:26;;;;;;;10.52;5.57;;;14.70;99.90;;;;;;5034383;28;20094;-53
2023/07/18 00:39:54;;;;;;;14.73;5.47;;;14.70;99.90;;;;;;5033042;28;20090;-54
2023/07/18 00:42:20;;;;;;;11.13;5.50;;;14.70;99.90;;;;;;5030799;28;20033;-54
2023/07/18 00:44:49;;;;;;;13.55;5.57;;;14.80;99.90;;;;;;5032538;28;20036;-52
2023/07/18 00:47:15;;;;;;;11.68;5.47;;;14.80;99.90;;;;;;5041874;28;20048;-53
2023/07/18 00:49:41;;;;;;;11.38;5.35;;;14.80;99.90;;;;;;5030477;28;20080;-55
2023/07/18 00:52:07;;;;;;;11.63;6.03;;;14.70;99.90;;;;;;5029746;28;20087;-53
2023/07/18 00:54:33;;;;;;;12.23;5.68;;;14.80;99.90;;;;;;5036732;28;20033;-54
2023/07/18 00:57:00;;;;;;;15.13;5.57;;;14.70;99.90;;;;;;5031389;28;20025;-54
2023/07/18 00:59:27;;;;;;;8.95;5.10;;;14.80;99.90;;;;;;5032154;28;20052;-53
2023/07/18 01:01:53;;;;;;;11.20;5.72;;;14.70;99.90;;;;;;5036200;28;20068;-54
2023/07/18 01:04:19;;;;;;;10.75;5.28;;;14.70;99.90;;;;;;5038159;28;21273;-55
2023/07/18 01:06:46;;;;;;;11.50;5.30;;;14.80;99.90;;;;;;5035446;28;20033;-55
2023/07/18 01:09:12;;;;;;;13.63;6.15;;;14.60;99.90;;;;;;5038078;28;20052;-55
2023/07/18 01:11:38;;;;;;;11.55;5.50;;;14.60;99.90;;;;;;5028990;28;20053;-55
2023/07/18 01:14:04;;;;;;;10.45;5.47;;;14.70;99.90;;;;;;5043598;28;20027;-52
2023/07/18 01:16:30;;;;;;;13.18;6.05;;;14.50;99.90;;;;;;5029787;28;20467;-55
2023/07/18 01:18:56;;;;;;;12.98;5.40;;;14.30;99.90;;;;;;5038624;28;20710;-56
2023/07/18 01:21:24;;;;;;;12.18;5.55;;;14.50;99.90;;;;;;5027981;28;20037;-55
2023/07/18 01:23:50;;;;;;;13.23;5.10;;;14.60;99.90;;;;;;5032346;28;20419;-53
2023/07/18 01:26:16;;;;;;;10.45;5.38;;;14.50;99.90;;;;;;5027162;28;20592;-51
2023/07/18 01:28:42;;;;;;;10.32;5.03;;;14.60;99.90;;;;;;5032333;28;20461;-53
2023/07/18 01:31:08;;;;;;;9.07;4.75;;;14.50;99.90;;;;;;5027687;28;20025;-56
2023/07/18 01:33:34;;;;;;;14.40;5.55;;;14.40;99.90;;;;;;5034114;28;20032;-55
2023/07/18 01:36:00;;;;;;;14.07;5.63;;;14.30;99.90;;;;;;5031456;28;20030;-56
2023/07/18 01:38:31;;;;;;;11.07;5.47;;;14.30;99.90;;;;;;5032237;28;20539;-55
2023/07/18 01:40:58;;;;;;;10.35;5.05;;;14.50;99.90;;;;;;5025796;28;20049;-54
2023/07/18 01:43:24;;;;;;;11.88;5.18;;;14.50;99.90;;;;;;5036722;28;20048;-54
2023/07/18 01:45:49;;;;;;;11.20;5.18;;;14.80;99.90;;;;;;5032475;28;20042;-60
2023/07/18 01:48:16;;;;;;;12.05;5.18;;;14.80;99.90;;;;;;5034422;28;20040;-56
2023/07/18 01:50:42;;;;;;;7.75;4.70;;;;;;;;;;5027617;28;20063;-55
2023/07/18 01:53:10;;;;;;;11.52;5.43;;;14.30;99.90;;;;;;5025744;28;20110;-54
2023/07/18 01:55:37;;;;;;;9.82;4.95;;;14.30;99.90;;;;;;5028770;28;20475;-52
2023/07/18 01:58:03;;;;;;;12.40;5.38;;;14.20;99.90;;;;;;5039075;28;20033;-54
2023/07/18 02:00:28;;;;;;;10.25;4.97;;;14.10;99.90;;;;;;5037321;28;20055;-54
2023/07/18 02:02:54;;;;;;;9.43;5.25;;;14.20;99.90;;;;;;5030476;28;20400;-54
2023/07/18 02:05:24;;;;;;;12.20;5.45;;;14.30;99.90;;;;;;5030082;28;20559;-53
2023/07/18 02:07:51;;;;;;;9.85;5.40;;;14.20;99.90;;;;;;5038873;28;20431;-54
2023/07/18 02:10:21;;;;;;;11.18;5.35;;;14.20;99.90;;;;;;5034856;28;20128;-51
2023/07/18 02:12:51;;;;;;;9.85;5.22;;;14.20;99.90;;;;;;5030198;28;20113;-54
2023/07/18 02:15:17;;;;;;;11.10;5.28;;;14.30;99.90;;;;;;5032978;28;20157;-54
2023/07/18 02:17:43;;;;;;;12.07;4.68;;;14.40;99.90;;;;;;5040360;28;20524;-54
2023/07/18 02:20:11;;;;;;;11.07;5.10;;;14.30;99.90;;;;;;5033148;28;20464;-54
2023/07/18 02:22:38;;;;;;;14.18;5.40;;;14.10;99.90;;;;;;5042780;28;20434;-53
2023/07/18 02:25:05;;;;;;;8.77;4.88;;;14.10;99.90;;;;;;5029792;28;20528;-54
2023/07/18 02:27:32;;;;;;;11.43;4.85;;;14.00;99.90;;;;;;5024552;28;20044;-51
2023/07/18 02:30:00;;;;;;;11.18;5.50;;;14.10;99.90;;;;;;5032600;28;20506;-54
2023/07/18 02:32:28;;;;;;;9.98;5.25;;;14.30;99.90;;;;;;5028616;28;20538;-54
2023/07/18 02:34:54;;;;;;;7.60;5.00;;;14.10;99.90;;;;;;5035577;28;20110;-53
2023/07/18 02:37:19;;;;;;;11.05;5.68;;;14.10;99.90;;;;;;5026838;28;20592;-55
2023/07/18 02:39:45;;;;;;;9.88;5.22;;;14.20;99.90;;;;;;5028335;28;20048;-55
2023/07/18 02:42:11;;;;;;;10.02;5.25;;;14.20;99.90;;;;;;5038281;28;20040;-54
2023/07/18 02:44:37;;;;;;;10.05;4.93;;;14.10;99.90;;;;;;5035228;28;20118;-54
2023/07/18 02:47:03;;;;;;;9.10;4.90;;;14.10;99.90;;;;;;5031852;28;20198;-54
2023/07/18 02:49:29;;;;;;;10.70;5.03;;;14.00;99.90;;;;;;5032153;28;20037;-52
2023/07/18 02:51:55;;;;;;;11.38;5.68;;;14.00;99.90;;;;;;5037743;28;20021;-53
2023/07/18 02:54:20;;;;;;;11.13;4.80;;;14.00;99.90;;;;;;5042073;28;20475;-53
2023/07/18 02:56:46;;;;;;;10.68;5.03;;;14.00;99.90;;;;;;5023696;28;20029;-51
2023/07/18 02:59:13;;;;;;;10.40;4.82;;;13.90;99.90;;;;;;5039990;28;20032;-53
2023/07/18 03:01:39;;;;;;;10.85;5.28;;;14.00;99.90;;;;;;5027347;28;20519;-54
2023/07/18 03:04:05;;;;;;;10.43;5.45;;;14.00;99.90;;;;;;5034622;28;20049;-53
2023/07/18 03:06:30;;;;;;;9.00;5.10;;;14.00;99.90;;;;;;5040379;28;20029;-54
2023/07/18 03:08:56;;;;;;;11.68;5.68;;;14.00;99.90;;;;;;5040725;28;20112;-54
2023/07/18 03:11:22;;;;;;;12.48;5.00;;;14.00;99.90;;;;;;5030020;28;20041;-55
2023/07/18 03:13:48;;;;;;;11.43;5.57;;;14.00;99.90;;;;;;5032924;28;20029;-58
2023/07/18 03:16:13;;;;;;;13.00;5.50;;;14.00;99.90;;;;;;5029156;28;20393;-53
2023/07/18 03:18:39;;;;;;;15.05;5.35;;;14.00;99.90;;;;;;5031529;28;20466;-54
2023/07/18 03:21:04;;;;;;;10.30;4.97;;;13.90;99.90;;;;;;5034765;28;20052;-51
2023/07/18 03:23:30;;;;;;;10.35;5.43;;;13.90;99.90;;;;;;5034710;28;20037;-53
2023/07/18 03:25:56;;;;;;;13.88;5.97;;;13.90;99.90;;;;;;5032914;28;20571;-53
2023/07/18 03:28:21;;;;;;;13.50;5.05;;;13.90;99.90;;;;;;5030068;28;20037;-54
2023/07/18 03:30:47;;;;;;;12.02;5.15;;;13.90;99.90;;;;;;5039784;28;20078;-53
2023/07/18 03:33:13;;;;;;;11.15;5.60;;;14.10;99.90;;;;;;5043174;28;20070;-54
2023/07/18 03:35:39;;;;;;;17.13;5.95;;;14.10;99.90;;;;;;5035872;28;20443;-54
2023/07/18 03:38:05;;;;;;;13.43;6.00;;;14.00;99.90;;;;;;5036353;28;20039;-53
2023/07/18 03:40:30;;;;;;;15.07;5.38;;;13.90;99.90;;;;;;5028049;28;20409;-52
2023/07/18 03:42:56;;;;;;;12.93;5.22;;;13.90;99.90;;;;;;5034671;28;20048;-53
2023/07/18 03:45:22;;;;;;;13.95;5.65;;;14.10;99.90;;;;;;5037699;28;20041;-54
2023/07/18 03:47:47;;;;;;;14.27;5.90;;;13.90;99.90;;;;;;5031433;28;20076;-52
2023/07/18 03:50:16;;;;;;;12.27;5.88;;;13.90;99.90;;;;;;5030798;28;20458;-53
2023/07/18 03:52:41;;;;;;;12.73;5.97;;;13.80;99.90;;;;;;5035393;28;20064;-52
2023/07/18 03:55:08;;;;;;;8.25;5.05;;;13.80;99.90;;;;;;5036928;28;20057;-53
2023/07/18 03:57:36;;;;;;;14.85;5.40;;;13.90;99.90;;;;;;5055223;28;20041;-57
2023/07/18 04:00:13;;;;;;;15.25;5.68;;;14.00;99.90;;;;;;5034690;28;20037;-55
2023/07/18 04:02:39;;;;;;;8.73;5.15;;;14.00;99.90;;;;;;5040105;28;20484;-54
2023/07/18 04:05:05;;;;;;;14.88;5.18;;;13.90;99.90;;;;;;5042915;28;20040;-52
2023/07/18 04:07:31;;;;;;;9.15;5.20;;;13.90;99.90;;;;;;5035427;28;20037;-51
2023/07/18 04:09:57;;;;;;;10.68;5.72;;;13.80;99.90;;;;;;5035622;28;20030;-52
2023/07/18 04:12:23;;;;;;;11.38;5.82;;;13.80;99.90;;;;;;5035288;28;20052;-52
2023/07/18 04:14:49;;;;;;;9.68;5.20;;;13.90;99.90;;;;;;5035225;28;20033;-52
2023/07/18 04:17:14;;;;;;;11.70;5.65;;;13.90;99.90;;;;;;5041004;28;20365;-53
2023/07/18 04:19:40;;;;;;;11.27;5.68;;;14.00;99.90;;;;;;5039810;28;20063;-53
2023/07/18 04:22:05;;;;;;;11.45;5.78;;;14.00;99.90;;;;;;5035479;28;20077;-54
2023/07/18 04:24:31;;;;;;;12.95;5.63;;;14.00;99.90;;;;;;5031871;28;20124;-55
2023/07/18 04:26:57;;;;;;;10.25;5.28;;;13.90;99.90;;;;;;5037023;28;20480;-54
2023/07/18 04:29:24;;;;;;;13.90;5.47;;;14.10;99.90;;;;;;5029051;28;20029;-53
2023/07/18 04:31:50;;;;;;;11.68;5.95;;;14.10;99.90;;;;;;5053800;28;20044;-54
2023/07/18 04:34:17;;;;;;;9.77;5.45;;;14.10;99.90;;;;;;5038135;28;20033;-53
2023/07/18 04:36:42;;;;;;;10.13;5.53;;;14.10;99.90;;;;;;5034036;28;20100;-54
2023/07/18 04:39:09;;;;;;;12.85;6.05;;;14.10;99.90;;;;;;5035787;28;20125;-53
2023/07/18 04:41:35;;;;;;;12.65;5.93;;;14.30;99.90;;;;;;5027193;28;20091;-53
2023/07/18 04:44:01;;;;;;;14.32;5.70;;;14.20;99.90;;;;;;5029410;28;20033;-54
2023/07/18 04:46:27;;;;;;;8.40;5.68;;;14.20;99.90;;;;;;5034111;28;20099;-55
2023/07/18 04:48:53;;;;;;;12.73;5.35;;;14.30;99.90;;;;;;5033972;28;20068;-54
2023/07/18 04:51:18;;;;;;;11.88;5.63;;;14.50;99.90;;;;;;5030500;28;20329;-54
2023/07/18 04:53:44;;;;;;;10.77;5.80;;;14.50;99.90;;;;;;5041993;28;20025;-54
2023/07/18 04:56:09;;;;;;;10.35;5.70;;;14.70;99.90;;;;;;5033133;28;20040;-53
2023/07/18 04:58:35;;;;;;;11.93;5.70;;;14.70;99.90;;;;;;5031443;28;20130;-54
2023/07/18 05:01:02;;;;;;;11.27;5.93;;;14.60;99.90;;;;;;5036036;28;20528;-53
2023/07/18 05:03:28;;;;;;;13.93;5.25;;;14.70;99.90;;;;;;5039544;28;20132;-50
2023/07/18 05:05:55;;;;;;;10.38;5.78;;;14.80;99.90;;;;;;5039367;28;20555;-54
2023/07/18 05:08:21;;;;;;;9.07;5.93;;;14.90;99.90;;;;;;5041141;28;20060;-53
2023/07/18 05:10:47;;;;;;;11.02;5.32;;;15.00;99.90;;;;;;5034219;28;20056;-52
2023/07/18 05:13:13;;;;;;;13.38;5.75;;;15.10;99.90;;;;;;5040086;28;20039;-53
2023/07/18 05:15:44;;;;;;;14.15;6.45;;;15.10;99.90;;;;;;5031951;28;20057;-53
2023/07/18 05:18:10;;;;;;;15.18;6.22;;;15.20;99.90;;;;;;5031885;28;20083;-50
2023/07/18 05:20:35;;;;;;;13.75;5.90;;;15.40;99.90;;;;;;5028448;28;20052;-54
2023/07/18 05:23:01;;;;;;;10.77;5.85;;;15.60;99.90;;;;;;5023333;28;20068;-53
2023/07/18 05:25:27;;;;;;;11.23;5.55;;;15.60;99.90;;;;;;5037140;28;20037;-55
2023/07/18 05:27:53;;;;;;;58.45;36.00;;;15.70;99.90;;;;;;5033689;28;20041;-54
2023/07/18 05:30:20;;;;;;;11.25;6.70;;;15.70;99.90;;;;;;5037100;28;20429;-55
2023/07/18 05:32:50;;;;;;;10.75;5.47;;;15.70;99.90;;;;;;5036442;28;20579;-54
2023/07/18 05:35:15;;;;;;;14.35;6.10;;;15.70;99.90;;;;;;5030759;28;20037;-50
2023/07/18 05:37:42;;;;;;;10.40;5.00;;;15.90;99.90;;;;;;5032678;28;20467;-52
2023/07/18 05:40:09;;;;;;;9.48;5.20;;;15.70;99.90;;;;;;5031889;28;20103;-55
2023/07/18 05:42:36;;;;;;;11.25;5.30;;;15.90;99.90;;;;;;5033162;28;20577;-53
2023/07/18 05:45:02;;;;;;;13.57;5.38;;;16.00;99.90;;;;;;5034566;28;20087;-54
2023/07/18 05:47:28;;;;;;;9.07;4.88;;;16.00;99.90;;;;;;5035721;28;20048;-53
2023/07/18 05:49:54;;;;;;;10.35;4.70;;;16.10;99.90;;;;;;5038925;28;20034;-54
2023/07/18 05:52:20;;;;;;;11.98;4.72;;;16.20;99.90;;;;;;5034532;28;20484;-51
2023/07/18 05:54:45;;;;;;;9.80;4.93;;;16.20;99.90;;;;;;5042881;28;20427;-53
2023/07/18 05:57:11;;;;;;;15.25;4.93;;;16.30;99.90;;;;;;5036593;28;20029;-53
2023/07/18 05:59:36;;;;;;;9.48;4.72;;;16.30;99.90;;;;;;5030087;28;20087;-53
2023/07/18 06:02:05;;;;;;;9.15;4.57;;;16.40;99.90;;;;;;5034508;28;20049;-53
2023/07/18 06:04:30;;;;;;;9.35;4.50;;;16.40;99.90;;;;;;5039210;28;20095;-54
2023/07/18 06:06:56;;;;;;;12.65;4.65;;;16.50;99.90;;;;;;5032761;28;20056;-52
2023/07/18 06:09:22;;;;;;;9.98;4.00;;;16.60;99.90;;;;;;5038907;28;20045;-54
2023/07/18 06:11:47;;;;;;;9.00;4.20;;;16.70;99.90;;;;;;5038026;28;20033;-53
2023/07/18 06:14:13;;;;;;;10.55;4.20;;;16.80;99.90;;;;;;5038461;28;20029;-54
2023/07/18 06:16:39;;;;;;;11.25;4.05;;;16.90;99.90;;;;;;5038063;28;20052;-54
2023/07/18 06:19:04;;;;;;;7.10;3.95;;;17.00;99.90;;;;;;5036028;28;20403;-54
2023/07/18 06:21:30;;;;;;;10.75;4.20;;;17.10;99.90;;;;;;5031522;28;20025;-54
2023/07/18 06:23:57;;;;;;;11.55;4.10;;;17.10;99.90;;;;;;5036053;28;20043;-54
2023/07/18 06:26:23;;;;;;;10.43;3.65;;;17.30;99.90;;;;;;5036836;28;21186;-53
2023/07/18 06:28:49;;;;;;;10.18;3.60;;;17.30;99.90;;;;;;5041454;28;20045;-52
2023/07/18 06:31:15;;;;;;;11.65;4.05;;;17.40;99.90;;;;;;5042127;28;20298;-54
2023/07/18 06:33:41;;;;;;;58.67;40.47;;;17.50;99.90;;;;;;5040767;28;20037;-55
2023/07/18 06:36:07;;;;;;;12.60;6.32;;;17.60;99.90;;;;;;5037722;28;20569;-54
2023/07/18 06:38:33;;;;;;;8.80;3.72;;;17.60;99.90;;;;;;5029827;28;20187;-50
2023/07/18 06:40:58;;;;;;;11.23;4.18;;;17.70;99.90;;;;;;5039041;28;20471;-50
2023/07/18 06:43:24;;;;;;;11.23;3.80;;;17.70;99.90;;;;;;5030618;28;20112;-56
2023/07/18 06:45:50;;;;;;;8.65;3.63;;;17.80;99.90;;;;;;5038059;28;20041;-54
2023/07/18 06:48:16;;;;;;;8.13;3.50;;;17.80;99.90;;;;;;5041318;28;20037;-51
2023/07/18 06:50:51;;;;;;;8.45;3.60;;;18.00;99.90;;;;;;5037174;28;20485;-55
2023/07/18 06:53:19;;;;;;;12.73;3.60;;;18.20;99.90;;;;;;5037716;28;20068;-54
2023/07/18 06:55:46;;;;;;;13.07;3.95;;;18.20;99.90;;;;;;5043201;28;20056;-54
2023/07/18 06:58:12;;;;;;;7.55;3.60;;;18.30;99.90;;;;;;5037768;28;20095;-54
2023/07/18 07:00:39;;;;;;;8.27;3.33;;;18.10;99.90;;;;;;5036091;28;20041;-52
2023/07/18 07:03:06;;;;;;;10.50;3.38;;;18.20;99.90;;;;;;5042048;28;20514;-54
2023/07/18 07:05:39;;;;;;;7.55;2.95;;;18.30;99.90;;;;;;5042715;28;20120;-55
2023/07/18 07:08:08;;;;;;;9.15;3.17;;;18.30;99.90;;;;;;5039848;28;20029;-54
2023/07/18 07:10:35;;;;;;;7.22;3.03;;;18.40;99.90;;;;;;5042066;28;20025;-54
2023/07/18 07:13:00;;;;;;;9.40;3.67;;;18.50;99.90;;;;;;5040133;28;20041;-54
2023/07/18 07:15:26;;;;;;;10.38;4.35;;;18.50;99.90;;;;;;5037082;28;20392;-54
2023/07/18 07:17:51;;;;;;;6.40;2.70;;;18.70;99.90;;;;;;5038101;28;20512;-53
2023/07/18 07:20:19;;;;;;;3.53;1.25;;;18.70;99.90;;;;;;5035707;28;20033;-53
2023/07/18 07:22:47;;;;;;;13.00;6.22;;;18.90;99.90;;;;;;5040546;28;20029;-54
2023/07/18 07:25:16;;;;;;;12.63;3.83;;;18.90;99.90;;;;;;5037488;28;20029;-52
2023/07/18 07:27:44;;;;;;;10.15;3.55;;;19.00;99.90;;;;;;5034947;28;20067;-53
2023/07/18 07:30:15;;;;;;;14.00;9.88;;;19.30;99.90;;;;;;5037526;28;20025;-52
2023/07/18 07:32:54;;;;;;;0.00;0.00;;;19.30;99.90;;;;;;5036590;28;20228;-53
2023/07/18 07:35:20;;;;;;;13.80;5.13;;;19.30;99.90;;;;;;5039819;28;20634;-55
2023/07/18 07:37:47;;;;;;;10.32;5.07;;;19.30;99.90;;;;;;5037220;28;20318;-53
2023/07/18 07:40:12;;;;;;;13.00;3.20;;;19.30;99.90;;;;;;5037598;28;20153;-52
2023/07/18 07:42:39;;;;;;;10.98;3.50;;;19.40;99.90;;;;;;5033493;28;20128;-54
2023/07/18 07:45:06;;;;;;;16.13;6.35;;;19.70;99.90;;;;;;5044837;28;20048;-53
2023/07/18 07:47:32;;;;;;;35.67;19.02;;;19.80;99.90;;;;;;5033506;28;20132;-52
2023/07/18 07:49:58;;;;;;;16.88;7.03;;;19.70;99.90;;;;;;5041540;28;20536;-52
2023/07/18 07:52:24;;;;;;;10.45;3.80;;;19.80;99.90;;;;;;5044495;28;20171;-54
2023/07/18 07:54:49;;;;;;;8.63;3.42;;;20.00;99.90;;;;;;5039383;28;20528;-55
2023/07/18 07:57:15;;;;;;;12.68;3.30;;;20.10;99.90;;;;;;5037451;28;20045;-56
2023/07/18 07:59:42;;;;;;;11.48;4.35;;;20.30;99.90;;;;;;5036192;28;20036;-55
2023/07/18 08:02:08;;;;;;;10.25;3.20;;;20.20;99.90;;;;;;5042587;28;20036;-54
2023/07/18 08:04:34;;;;;;;9.95;3.10;;;20.30;99.90;;;;;;5041738;28;20401;-53
2023/07/18 08:07:00;;;;;;;10.88;3.20;;;20.30;99.90;;;;;;5044733;28;20032;-54
2023/07/18 08:09:25;;;;;;;12.43;2.83;;;20.20;99.90;;;;;;5040213;28;20034;-55
2023/07/18 08:11:51;;;;;;;10.05;2.70;;;20.30;99.90;;;;;;5042623;28;20040;-52
2023/07/18 08:14:17;;;;;;;10.18;3.38;;;20.30;99.90;;;;;;5040175;28;20033;-55
2023/07/18 08:16:46;;;;;;;15.07;2.92;;;20.40;99.90;;;;;;5037934;28;20391;-53
2023/07/18 08:19:11;;;;;;;6.55;2.58;;;19.80;99.90;;;;;;5043727;28;20355;-53
2023/07/18 08:21:37;;;;;;;10.25;3.03;;;20.60;99.90;;;;;;5041139;28;20052;-55
2023/07/18 08:24:03;;;;;;;8.30;3.10;;;20.70;99.90;;;;;;5041750;28;20048;-55
2023/07/18 08:26:28;;;;;;;14.60;3.22;;;20.50;99.90;;;;;;5034032;28;20106;-55
2023/07/18 08:28:54;;;;;;;6.90;3.35;;;20.50;99.90;;;;;;5043057;28;20444;-55
2023/07/18 08:31:19;;;;;;;11.32;2.97;;;20.50;99.90;;;;;;5040087;28;20056;-54
2023/07/18 08:33:45;;;;;;;9.10;2.58;;;20.40;99.90;;;;;;5040639;28;20040;-54
2023/07/18 08:36:11;;;;;;;12.07;2.90;;;20.60;99.90;;;;;;5035038;28;20546;-54
2023/07/18 08:38:37;;;;;;;7.57;2.00;;;20.80;99.90;;;;;;5036241;28;20044;-53
2023/07/18 08:41:03;;;;;;;10.27;2.50;;;20.90;99.90;;;;;;5040332;28;20045;-53
2023/07/18 08:43:35;;;;;;;9.32;2.50;;;21.00;99.90;;;;;;5036497;28;20044;-52
2023/07/18 08:46:03;;;;;;;7.93;2.13;;;21.10;99.90;;;;;;5035984;28;20052;-53
2023/07/18 08:48:31;;;;;;;9.55;2.40;;;20.90;99.90;;;;;;5022436;28;20122;-53
2023/07/18 08:50:59;;;;;;;8.30;2.47;;;20.90;99.90;;;;;;5036976;28;20044;-53
2023/07/18 08:53:26;;;;;;;9.05;1.95;;;20.90;99.90;;;;;;5040490;28;20111;-52
2023/07/18 08:55:52;;;;;;;5.15;2.10;;;21.10;99.90;;;;;;5037367;28;20078;-50
2023/07/18 08:58:18;;;;;;;7.75;2.40;;;21.10;99.90;;;;;;5040942;28;20508;-51
2023/07/18 09:00:44;;;;;;;4.63;2.20;;;21.10;99.90;;;;;;5033588;28;20419;-54
2023/07/18 09:03:09;;;;;;;8.10;2.30;;;21.20;99.90;;;;;;5042335;28;20043;-54
2023/07/18 09:05:36;;;;;;;5.00;1.98;;;21.30;99.90;;;;;;5032785;28;20048;-54
2023/07/18 09:08:04;;;;;;;8.25;2.95;;;21.40;99.90;;;;;;5041593;28;20036;-54
2023/07/18 09:10:30;;;;;;;2.17;1.00;;;21.40;99.90;;;;;;5031171;28;20060;-53
2023/07/18 09:13:07;;;;;;;6.95;2.55;;;21.30;99.90;;;;;;5043569;28;20035;-52
2023/07/18 09:15:37;;;;;;;9.93;3.63;;;21.60;99.90;;;;;;5034960;28;20045;-53
2023/07/18 09:18:15;;;;;;;10.90;2.45;;;21.60;99.90;;;;;;5031852;28;20049;-52
2023/07/18 09:20:40;;;;;;;9.82;9.13;;;21.70;99.90;;;;;;5039886;28;20047;-51
2023/07/18 09:23:06;;;;;;;0.00;0.00;;;21.70;99.90;;;;;;5028459;28;20033;-55
2023/07/18 09:25:38;;;;;;;0.00;0.00;;;21.60;99.90;;;;;;5033902;28;20029;-54
2023/07/18 09:28:04;;;;;;;0.00;0.00;;;21.60;99.90;;;;;;5029825;28;20045;-53
2023/07/18 09:30:36;;;;;;;0.38;0.38;;;21.70;99.90;;;;;;5030933;28;20036;-54
2023/07/18 09:33:06;;;;;;;0.35;0.22;;;21.70;99.90;;;;;;5028548;28;20037;-51
2023/07/18 09:35:41;;;;;;;0.00;0.00;;;21.40;99.90;;;;;;5039643;28;20115;-49
2023/07/18 09:38:07;;;;;;;0.32;0.20;;;21.30;99.90;;;;;;5043424;28;20040;-49
2023/07/18 09:40:33;;;;;;;0.00;0.00;;;21.40;99.90;;;;;;5043486;28;20400;-50
2023/07/18 09:43:01;;;;;;;0.00;0.00;;;21.90;99.90;;;;;;5040897;28;20484;-50
2023/07/18 09:45:28;;;;;;;0.00;0.00;;;21.90;99.90;;;;;;5040395;28;20489;-51
2023/07/18 09:47:54;;;;;;;0.00;0.00;;;22.20;99.90;;;;;;5034395;28;20572;-48
2023/07/18 09:50:20;;;;;;;0.00;0.00;;;22.00;99.90;;;;;;5033963;28;20041;-50
2023/07/18 09:52:49;;;;;;;0.25;0.25;;;22.10;99.90;;;;;;5029749;28;20621;-51
2023/07/18 09:55:21;;;;;;;0.28;0.28;;;22.10;99.90;;;;;;5038689;28;20037;-50
2023/07/18 09:57:48;;;;;;;2.78;1.02;;;22.30;99.90;;;;;;5038971;28;20036;-49
2023/07/18 10:00:17;;;;;;;2.08;1.10;;;22.40;99.90;;;;;;5039074;28;20029;-51
2023/07/18 10:02:43;;;;;;;2.08;1.38;;;22.60;99.90;;;;;;5045448;28;20128;-50
2023/07/18 10:05:10;;;;;;;1.50;1.40;;;22.40;99.90;;;;;;5043635;28;20029;-48
2023/07/18 10:07:38;;;;;;;0.88;0.85;;;22.40;99.90;;;;;;5042701;28;20725;-51
2023/07/18 10:10:08;;;;;;;1.23;1.10;;;22.40;99.90;;;;;;5043105;28;20159;-48
2023/07/18 10:12:36;;;;;;;2.28;1.00;;;22.20;99.90;;;;;;5035036;28;20558;-50
2023/07/18 10:15:03;;;;;;;0.65;0.57;;;22.30;99.90;;;;;;5028577;28;20033;-51
2023/07/18 10:17:35;;;;;;;0.50;0.47;;;22.30;99.90;;;;;;5043526;28;20048;-47
2023/07/18 10:20:10;;;;;;;1.25;1.15;;;22.40;99.90;;;;;;5040014;28;20029;-52
2023/07/18 10:22:36;;;;;;;1.63;0.85;;;22.30;99.90;;;;;;5045369;28;20104;-48
2023/07/18 10:25:11;;;;;;;0.70;0.60;;;22.20;99.90;;;;;;5046682;28;20060;-52
2023/07/18 10:27:37;;;;;;;4.43;0.95;;;22.10;99.90;;;;;;5042095;28;20443;-49
2023/07/18 10:30:07;;;;;;;4.45;1.25;;;22.10;99.90;;;;;;5041706;28;20034;-48
2023/07/18 10:32:34;;;;;;;2.50;0.95;;;22.10;99.90;;;;;;5044127;28;20142;-48
2023/07/18 10:35:04;;;;;;;0.00;0.00;;;22.00;99.90;;;;;;5040348;28;20336;-50
2023/07/18 10:37:30;;;;;;;0.00;0.00;;;21.80;99.90;;;;;;5038777;28;20036;-51
2023/07/18 10:39:56;;;;;;;0.00;0.00;;;21.90;99.90;;;;;;5042939;28;20398;-49
2023/07/18 10:42:28;;;;;;;0.00;0.00;;;22.00;99.90;;;;;;5043837;28;20075;-54
2023/07/18 10:44:57;;;;;;;0.00;0.00;;;22.00;99.90;;;;;;5041455;28;20244;-52
2023/07/18 10:47:23;;;;;;;0.00;0.00;;;22.10;99.90;;;;;;5041336;28;20037;-53
2023/07/18 10:49:49;;;;;;;0.00;0.00;;;22.10;99.90;;;;;;5041007;28;20044;-52
2023/07/18 10:52:16;;;;;;;0.00;0.00;;;22.20;99.90;;;;;;5045639;28;20045;-51
2023/07/18 10:54:55;;;;;;;0.00;0.00;;;22.20;99.90;;;;;;5026874;28;20040;-50
2023/07/18 10:57:36;;;;;;;0.00;0.00;;;22.10;99.90;;;;;;5041694;28;20041;-50
2023/07/18 11:00:05;;;;;;;0.00;0.00;;;22.20;99.90;;;;;;5044564;28;20428;-48
2023/07/18 11:02:41;;;;;;;0.00;0.00;;;22.20;99.90;;;;;;5020242;28;20042;-50
2023/07/18 11:05:11;;;;;;;0.00;0.00;;;22.40;99.90;;;;;;5022018;28;20029;-52
2023/07/18 11:07:48;;;;;;;0.00;0.00;;;22.20;99.90;;;;;;5043765;28;20293;-51
2023/07/18 11:10:14;;;;;;;0.00;0.00;;;22.40;99.90;;;;;;5037341;28;20036;-49
2023/07/18 11:12:41;;;;;;;0.00;0.00;;;22.50;99.90;;;;;;5029132;28;20037;-53
2023/07/18 11:15:09;;;;;;;0.00;0.00;;;22.60;99.90;;;;;;5040178;28;20061;-51
2023/07/18 11:17:35;;;;;;;0.00;0.00;;;22.70;99.90;;;;;;5038561;28;20618;-53
2023/07/18 11:20:03;;;;;;;0.00;0.00;;;22.80;99.90;;;;;;5040642;28;20045;-51
2023/07/18 11:22:29;;;;;;;0.00;0.00;;;22.70;99.90;;;;;;5042092;28;20041;-49
2023/07/18 11:24:55;;;;;;;0.00;0.00;;;22.90;99.90;;;;;;5034452;28;20549;-48
2023/07/18 11:27:29;;;;;;;0.00;0.00;;;22.90;99.90;;;;;;5030895;28;20129;-50
2023/07/18 11:30:03;;;;;;;0.00;0.00;;;23.00;99.90;;;;;;5039293;28;20441;-49
2023/07/18 11:32:45;;;;;;;0.00;0.00;;;23.20;99.90;;;;;;5037063;28;20607;-52
2023/07/18 11:35:18;;;;;;;0.00;0.00;;;23.30;99.90;;;;;;5041653;28;20051;-50
2023/07/18 11:37:46;;;;;;;0.00;0.00;;;23.40;99.90;;;;;;5039894;28;20377;-46
2023/07/18 11:40:23;;;;;;;0.00;0.00;;;23.40;99.90;;;;;;5038833;28;20103;-48
2023/07/18 11:42:51;;;;;;;0.00;0.00;;;23.40;99.90;;;;;;5044865;28;20047;-48
2023/07/18 11:45:22;;;;;;;0.00;0.00;;;23.40;99.90;;;;;;5039098;28;20143;-48
2023/07/18 11:47:51;;;;;;;0.00;0.00;;;23.60;99.90;;;;;;5043737;28;20182;-50
2023/07/18 11:50:17;;;;;;;0.00;0.00;;;24.10;99.90;;;;;;5042834;28;20037;-48
2023/07/18 11:52:47;;;;;;;0.00;0.00;;;23.80;99.90;;;;;;5042336;28;20052;-49
2023/07/18 11:55:17;;;;;;;0.00;0.00;;;23.50;99.90;;;;;;5043780;28;20523;-47
2023/07/18 11:57:44;;;;;;;0.00;0.00;;;23.40;99.90;;;;;;5039312;28;20029;-49
2023/07/18 12:00:11;;;;;;;0.00;0.00;;;23.50;99.90;;;;;;5039865;28;20033;-48
2023/07/18 12:02:37;;;;;;;0.00;0.00;;;23.30;99.90;;;;;;5038287;28;20822;-50
2023/07/18 12:05:05;;;;;;;0.00;0.00;;;23.20;99.90;;;;;;5039691;28;20037;-48
2023/07/18 12:07:31;;;;;;;0.00;0.00;;;23.30;99.90;;;;;;5041415;28;20614;-46
2023/07/18 12:09:57;;;;;;;0.00;0.00;;;23.10;99.90;;;;;;5030317;28;20547;-46
2023/07/18 12:12:23;;;;;;;1.48;0.80;;;22.90;99.90;;;;;;5043843;28;20120;-49
2023/07/18 12:14:50;;;;;;;1.48;1.40;;;22.80;99.90;;;;;;5040908;28;20032;-47
2023/07/18 12:17:15;;;;;;;0.88;0.55;;;23.00;99.90;;;;;;5039017;28;20090;-51
2023/07/18 12:19:42;;;;;;;1.38;1.27;;;23.10;99.90;;;;;;5040808;28;20044;-50
2023/07/18 12:22:08;;;;;;;1.05;0.90;;;23.20;99.90;;;;;;5034898;28;20155;-49
2023/07/18 12:24:33;;;;;;;0.55;0.55;;;23.30;99.90;;;;;;5028538;28;20079;-49
2023/07/18 12:26:59;;;;;;;2.10;1.77;;;23.30;99.90;;;;;;5039879;28;20029;-48
2023/07/18 12:29:25;;;;;;;0.00;0.00;;;23.40;99.90;;;;;;5038337;28;20091;-49
2023/07/18 12:31:51;;;;;;;0.30;0.30;;;23.40;99.90;;;;;;5040364;28;20171;-48
2023/07/18 12:34:21;;;;;;;1.85;1.70;;;23.40;99.90;;;;;;5038168;28;20416;-51
2023/07/18 12:36:47;;;;;;;1.25;0.70;;;23.40;99.90;;;;;;5037057;28;20048;-47
2023/07/18 12:39:16;;;;;;;2.53;1.95;;;23.40;99.90;;;;;;5041634;28;20400;-49
2023/07/18 12:41:42;;;;;;;3.90;3.22;;;23.40;99.90;;;;;;5036326;28;20060;-49